LIRF/FCO METAR and TAF weather

Enter ICAO airport designator
Station Type Date Time Source
LIRF METAR 2020/02/24 07:50 UTC NOAA

LIRF 240750Z 07007KT 9999 BKN022 12/09 Q1023 NOSIG


Station Type Date Time Source
LIRF Decoded METAR 2020/02/24 07:50 UTC NOAA

Roma Fiumicino, Italy (LIRF) 41-48N 012-14E 3M
Feb 24, 2020 - 02:50 AM EST / 2020.02.24 0750 UTC
Wind: from the ENE (070 degrees) at 8 MPH (7 KT):0
Visibility: greater than 7 mile(s):0
Sky conditions: mostly cloudy
Temperature: 53 F (12 C)
Dew Point: 48 F (9 C)
Relative Humidity: 81%
Pressure (altimeter): 30.21 in. Hg (1023 hPa)
ob: LIRF 240750Z 07007KT 9999 BKN022 12/09 Q1023 NOSIG
cycle: 8

Station Type Date Time Source
LIRF TAF 2020/02/24 06:24 UTC NOAA

TAF LIRF 240500Z 2406/2512 VRB05KT 7000 SCT020 BKN050
BECMG 2409/2411 18010KT

Example: see airport list